Impacts METAR Board
IDs:

KDEN - Denver Intl, CO, US

Updated at: 2300 UTC 21 May 2022
Potential Impact None Slight Moderate High
Time 21/11Z 21/12Z 21/13Z 21/14Z 21/15Z 21/16Z 21/17Z 21/18Z 21/19Z 21/20Z 21/21Z 21/22Z 21/23Z
Temp32 32 33 34 35 38 40 39 42 44 44 45 48
Dewpt32 29 30 29 29 27 30 28 29 27 24 26 27
Altim30.17 30.19 30.21 30.23 30.25 30.25 30.26 30.26 30.26 30.25 30.25 30.24 30.23
VIS6 10 10 10 10 10 10 10 10 10 10 10 10
CIG6 36 90 130 39 36 44 41 55 55 50 50 50
CoverOVCBKNBKNBKNBKNBKNBKNBKNBKNBKNBKNBKNBKN
FltCatIFRVFRVFRVFRVFRVFRVFRVFRVFRVFRVFRVFRVFR
WX-SN BR------------------------
WDir32040302050002101300000
WSpd5 4 7 5 3 3 3 3 4 3 0 3 0
WGst-- -- -- -- -- -- -- -- -- -- -- -- --
Raw hourly METARs
KDEN 211053Z 32005KT 6SM -SN BR BKN006 BKN011 OVC070 00/00 A3017 RMK AO2 SNE22B38 SLP227 VIS SW-W 2 1/2 P0001 T00000000 $
KDEN 211153Z 04004KT 10SM FEW006 BKN036 BKN120 00/M02 A3019 RMK AO2 SNE46 SLP231 SHSN DSNT SW AND NW P0000 60010 70076 T00001017 10006 21006 53010 $
KDEN 211253Z 03007KT 10SM FEW008 SCT038 BKN090 01/M01 A3021 RMK AO2 SLP241 VCSH T00061011 $
KDEN 211353Z 02005KT 10SM FEW015 SCT037 BKN130 BKN220 01/M02 A3023 RMK AO2 SLP246 T00111017 $
KDEN 211453Z 05003KT 10SM SCT020 BKN039 BKN130 BKN220 02/M02 A3025 RMK AO2 SLP251 T00171017 51018 $
KDEN 211553Z VRB03KT 10SM FEW020 BKN036 BKN160 BKN220 03/M03 A3025 RMK AO2 SLP247 T00331028 $
KDEN 211653Z VRB03KT 10SM FEW025 BKN044 BKN160 BKN220 04/M01 A3026 RMK AO2 SLP249 T00441011 $
KDEN 211753Z 21003KT 10SM SCT033 BKN041 BKN055 BKN220 04/M02 A3026 RMK AO2 SLP251 T00391022 10044 20000 53004 $
KDEN 211853Z 13004KT 10SM SCT031 BKN055 BKN120 BKN220 06/M02 A3026 RMK AO2 SLP247 T00561017 $
KDEN 211953Z VRB03KT 10SM FEW040 BKN055 BKN120 BKN220 07/M03 A3025 RMK AO2 SLP241 T00671028 $
KDEN 212053Z 00000KT 10SM BKN050 BKN120 BKN220 07/M04 A3025 RMK AO2 SLP237 T00671044 56005 $
KDEN 212153Z VRB03KT 10SM BKN050 BKN220 07/M03 A3024 RMK AO2 SLP234 T00721033 $
KDEN 212253Z 00000KT 10SM BKN050 BKN220 09/M03 A3023 RMK AO2 SLP230 T00891028 $



Page loaded:  23:05 UTC  |   04:05 PM Pacific  |   05:05 PM Mountain  |   06:05 PM Central  |   07:05 PM Eastern

 

ADVISORIES

FORECASTS

FORECASTS

OBSERVATIONS

USER TOOLS

ABOUT US